Time;durP1;ratioP1;P1;durP2;ratioP2;P2;SDS_P1;SDS_P2;PMS_P1;PMS_P2;Temp;Humidity;BMP_temperature;BMP_pressure;BME280_temperature;BME280_humidity;BME280_pressure;Samples;Min_cycle;Max_cycle;Signal;HPM_P1;HPM_P2
2023/06/02 00:01:14;;;;;;;1.95;1.55;;;;;;;;;;5057794;28;20036;-87
2023/06/02 00:03:42;;;;;;;1.57;0.87;;;;;;;;;;5061987;28;20481;-86
2023/06/02 00:06:11;;;;;;;2.67;1.30;;;;;;;;;;5058822;28;20472;-87
2023/06/02 00:08:45;;;;;;;2.17;1.30;;;;;;;;;;5059313;28;20037;-86
2023/06/02 00:11:12;;;;;;;1.45;1.35;;;;;;;;;;5063271;28;20120;-85
2023/06/02 00:13:46;;;;;;;2.67;1.00;;;;;;;;;;5061983;28;20021;-85
2023/06/02 00:16:15;;;;;;;2.03;1.08;;;;;;;;;;5055698;28;20059;-87
2023/06/02 00:18:43;;;;;;;0.90;0.70;;;;;;;;;;5060950;28;20027;-85
2023/06/02 00:21:24;;;;;;;2.75;1.30;;;;;;;;;;5058442;28;20040;-86
2023/06/02 00:23:58;;;;;;;1.92;1.55;;;;;;;;;;5056693;28;20028;-87
2023/06/02 00:26:32;;;;;;;1.48;0.98;;;;;;;;;;5053243;28;20024;-86
2023/06/02 00:29:02;;;;;;;1.45;1.15;;;;;;;;;;5061033;28;20086;-85
2023/06/02 00:31:27;;;;;;;1.40;1.30;;;;;;;;;;5056882;28;20040;-86
2023/06/02 00:33:56;;;;;;;3.92;1.77;;;;;;;;;;5062330;28;20029;-88
2023/06/02 00:36:30;;;;;;;2.30;1.38;;;;;;;;;;5057606;28;20654;-86
2023/06/02 00:38:56;;;;;;;2.88;1.58;;;;;;;;;;5055631;28;20426;-85
2023/06/02 00:41:21;;;;;;;2.10;1.50;;;;;;;;;;5059099;28;20060;-85
2023/06/02 00:43:47;;;;;;;1.08;0.85;;;;;;;;;;5058644;28;20021;-86
2023/06/02 00:46:13;;;;;;;1.48;1.15;;;;;;;;;;5054978;28;20124;-86
2023/06/02 00:48:39;;;;;;;1.30;1.08;;;;;;;;;;5057518;28;20055;-86
2023/06/02 00:51:05;;;;;;;2.30;1.50;;;;;;;;;;5060867;28;20131;-86
2023/06/02 00:53:31;;;;;;;1.83;1.02;;;;;;;;;;5053203;28;20100;-87
2023/06/02 00:56:01;;;;;;;2.10;1.10;;;;;;;;;;5062002;28;20028;-85
2023/06/02 00:58:28;;;;;;;3.13;1.30;;;;;;;;;;5059084;28;20498;-87
2023/06/02 01:00:54;;;;;;;2.17;1.30;;;;;;;;;;5063174;28;20033;-89
2023/06/02 01:03:26;;;;;;;1.73;1.30;;;;;;;;;;5058613;28;20033;-87
2023/06/02 01:05:55;;;;;;;1.88;0.88;;;;;;;;;;5056077;28;20025;-85
2023/06/02 01:08:21;;;;;;;1.70;1.33;;;;;;;;;;5055870;28;20032;-86
2023/06/02 01:10:47;;;;;;;3.22;1.67;;;;;;;;;;5058608;28;20033;-85
2023/06/02 01:13:12;;;;;;;1.60;1.10;;;;;;;;;;5058350;28;20036;-89
2023/06/02 01:15:41;;;;;;;1.23;1.10;;;;;;;;;;5055368;28;20029;-88
2023/06/02 01:18:09;;;;;;;2.58;1.27;;;;;;;;;;5058061;28;20061;-86
2023/06/02 01:20:44;;;;;;;1.45;1.15;;;;;;;;;;5060091;28;20032;-86
2023/06/02 01:23:35;;;;;;;2.58;1.30;;;;;;;;;;5053658;28;20384;-85
2023/06/02 01:26:01;;;;;;;1.52;0.90;;;;;;;;;;5053665;28;20037;-86
2023/06/02 01:28:29;;;;;;;1.15;0.88;;;;;;;;;;5063890;28;20040;-87
2023/06/02 01:31:27;;;;;;;0.95;0.88;;;;;;;;;;5059572;28;20384;-87
2023/06/02 01:34:14;;;;;;;1.85;1.23;;;;;;;;;;5057023;28;20672;-87
2023/06/02 01:36:46;;;;;;;1.67;1.10;;;;;;;;;;5057476;28;20136;-85
2023/06/02 01:39:18;;;;;;;2.25;1.95;;;;;;;;;;5055670;28;20110;-87
2023/06/02 01:41:55;;;;;;;1.08;0.93;;;;;;;;;;5060711;28;20028;-86
2023/06/02 01:44:21;;;;;;;1.52;1.02;;;;;;;;;;5050547;28;20082;-85
2023/06/02 01:46:48;;;;;;;1.40;0.95;;;;;;;;;;5059660;28;20048;-85
2023/06/02 01:49:15;;;;;;;1.65;1.15;;;;;;;;;;5065340;28;20033;-85
2023/06/02 01:51:45;;;;;;;2.08;1.23;;;;;;;;;;5055015;28;20033;-84
2023/06/02 01:54:11;;;;;;;0.98;0.77;;;;;;;;;;5060726;28;20029;-85
2023/06/02 01:56:38;;;;;;;3.40;1.42;;;;;;;;;;5055143;28;20032;-83
2023/06/02 01:59:10;;;;;;;1.58;1.42;;;;;;;;;;5052157;28;20482;-85
2023/06/02 02:01:36;;;;;;;1.25;1.15;;;;;;;;;;5062114;28;20094;-85
2023/06/02 02:04:02;;;;;;;1.63;1.23;;;;;;;;;;5056972;28;20033;-87
2023/06/02 02:06:35;;;;;;;2.15;1.38;;;;;;;;;;5058058;28;20025;-85
2023/06/02 02:09:00;;;;;;;1.13;0.70;;;;;;;;;;5059818;28;20035;-86
2023/06/02 02:11:27;;;;;;;1.30;1.20;;;;;;;;;;5059355;28;20028;-85
2023/06/02 02:13:53;;;;;;;0.90;0.80;;;;;;;;;;5051455;28;20029;-85
2023/06/02 02:16:19;;;;;;;4.18;0.98;;;;;;;;;;5061037;28;20078;-85
2023/06/02 02:18:46;;;;;;;1.63;1.25;;;;;;;;;;5055499;28;20033;-87
2023/06/02 02:21:12;;;;;;;1.60;1.40;;;;;;;;;;5049339;28;20444;-85
2023/06/02 02:23:40;;;;;;;2.22;1.30;;;;;;;;;;5050190;28;20081;-86
2023/06/02 02:26:09;;;;;;;1.70;1.35;;;;;;;;;;5055942;28;20025;-85
2023/06/02 02:28:35;;;;;;;0.93;0.88;;;;;;;;;;5059717;28;20420;-87
2023/06/02 02:31:00;;;;;;;0.98;0.77;;;;;;;;;;5064931;28;20025;-87
2023/06/02 02:33:26;;;;;;;1.83;1.13;;;;;;;;;;5068241;28;20032;-88
2023/06/02 02:35:53;;;;;;;2.17;1.30;;;;;;;;;;5063464;28;20528;-85
2023/06/02 02:38:19;;;;;;;1.90;1.35;;;;;;;;;;5062941;28;20031;-87
2023/06/02 02:40:45;;;;;;;1.48;0.93;;;;;;;;;;5059969;28;20103;-86
2023/06/02 02:43:10;;;;;;;1.60;1.33;;;;;;;;;;5059136;28;20556;-86
2023/06/02 02:45:37;;;;;;;1.85;1.30;;;;;;;;;;5064083;28;20024;-85
2023/06/02 02:48:02;;;;;;;2.15;1.05;;;;;;;;;;5058607;28;20029;-85
2023/06/02 02:50:28;;;;;;;0.55;0.55;;;;;;;;;;5057461;28;20437;-86
2023/06/02 02:52:54;;;;;;;1.42;1.08;;;;;;;;;;5055453;28;20029;-85
2023/06/02 02:55:19;;;;;;;1.10;1.00;;;;;;;;;;5063532;28;20036;-86
2023/06/02 02:57:47;;;;;;;1.42;0.90;;;;;;;;;;5055490;28;20021;-86
2023/06/02 03:00:19;;;;;;;1.70;1.50;;;;;;;;;;5068926;28;20052;-85
2023/06/02 03:02:47;;;;;;;3.15;2.25;;;;;;;;;;5060797;28;20032;-87
2023/06/02 03:05:13;;;;;;;2.45;1.50;;;;;;;;;;5055647;28;20024;-87
2023/06/02 03:07:39;;;;;;;1.67;1.48;;;;;;;;;;5059291;28;20063;-87
2023/06/02 03:10:06;;;;;;;1.60;1.05;;;;;;;;;;5059153;28;20107;-86
2023/06/02 03:12:32;;;;;;;1.48;1.25;;;;;;;;;;5056627;28;20043;-88
2023/06/02 03:14:59;;;;;;;5.03;1.73;;;;;;;;;;5058939;28;20033;-86
2023/06/02 03:17:24;;;;;;;1.15;1.00;;;;;;;;;;5059907;28;20469;-86
2023/06/02 03:19:50;;;;;;;2.13;1.50;;;;;;;;;;5058249;28;20044;-86
2023/06/02 03:22:15;;;;;;;3.15;1.42;;;;;;;;;;5067152;28;20543;-87
2023/06/02 03:24:41;;;;;;;1.58;1.38;;;;;;;;;;5058809;28;20022;-88
2023/06/02 03:27:13;;;;;;;3.47;1.70;;;;;;;;;;5059659;28;20045;-85
2023/06/02 03:29:42;;;;;;;1.08;0.95;;;;;;;;;;5060935;28;20025;-87
2023/06/02 03:32:12;;;;;;;6.18;1.70;;;;;;;;;;5056024;28;20044;-88
2023/06/02 03:34:39;;;;;;;;;;;;;;;;;;5064299;28;20032;-89
2023/06/02 03:37:10;;;;;;;2.67;1.58;;;;;;;;;;5061244;28;20287;-87
2023/06/02 03:39:36;;;;;;;3.05;1.23;;;;;;;;;;5063026;28;20047;-88
2023/06/02 03:42:05;;;;;;;1.25;1.10;;;;;;;;;;5057010;28;20021;-87
2023/06/02 03:44:31;;;;;;;4.43;1.80;;;;;;;;;;5062443;28;20063;-86
2023/06/02 03:46:56;;;;;;;1.95;1.50;;;;;;;;;;5065252;28;20320;-86
2023/06/02 03:49:29;;;;;;;3.28;1.13;;;;;;;;;;5058283;28;20447;-86
2023/06/02 03:51:55;;;;;;;1.80;1.35;;;;;;;;;;5061351;28;20427;-84
2023/06/02 03:54:23;;;;;;;2.35;1.58;;;;;;;;;;5060458;28;20105;-88
2023/06/02 03:56:49;;;;;;;1.50;1.10;;;;;;;;;;5056073;28;20021;-86
2023/06/02 03:59:15;;;;;;;2.13;1.55;;;;;;;;;;5063751;28;20032;-85
2023/06/02 04:01:41;;;;;;;1.90;1.63;;;;;;;;;;5054881;28;20058;-89
2023/06/02 04:04:11;;;;;;;3.00;1.95;;;;;;;;;;5057922;28;20033;-88
2023/06/02 04:06:38;;;;;;;2.60;1.90;;;;;;;;;;5059241;28;20040;-88
2023/06/02 04:09:08;;;;;;;2.13;1.40;;;;;;;;;;5065740;28;20025;-86
2023/06/02 04:11:34;;;;;;;1.58;1.30;;;;;;;;;;5069321;28;20074;-87
2023/06/02 04:14:04;;;;;;;1.98;1.08;;;;;;;;;;5056587;28;20099;-86
2023/06/02 04:16:35;;;;;;;1.35;1.25;;;;;;;;;;5059642;28;20086;-86
2023/06/02 04:19:01;;;;;;;1.55;1.45;;;;;;;;;;5063489;28;20464;-86
2023/06/02 04:21:26;;;;;;;2.08;1.60;;;;;;;;;;5063405;28;20103;-83
2023/06/02 04:23:52;;;;;;;1.55;1.13;;;;;;;;;;5059714;28;20031;-84
2023/06/02 04:26:17;;;;;;;2.33;1.67;;;;;;;;;;5049413;28;20040;-83
2023/06/02 04:28:43;;;;;;;2.17;0.93;;;;;;;;;;5058975;28;20060;-83
2023/06/02 04:31:11;;;;;;;2.47;1.77;;;;;;;;;;5054996;28;20028;-82
2023/06/02 04:33:37;;;;;;;2.25;1.50;;;;;;;;;;5056177;28;20052;-84
2023/06/02 04:36:03;;;;;;;2.30;1.58;;;;;;;;;;5056343;28;20032;-83
2023/06/02 04:38:29;;;;;;;2.17;1.55;;;;;;;;;;5057537;28;20021;-84
2023/06/02 04:40:56;;;;;;;1.73;1.20;;;;;;;;;;5058528;28;20074;-84
2023/06/02 04:43:22;;;;;;;2.42;1.58;;;;;;;;;;5042828;28;20031;-84
2023/06/02 04:45:47;;;;;;;1.60;1.30;;;;;;;;;;5051777;28;20044;-84
2023/06/02 04:48:13;;;;;;;2.47;1.42;;;;;;;;;;5055392;28;20385;-84
2023/06/02 04:50:39;;;;;;;1.63;1.35;;;;;;;;;;5057109;28;20032;-83
2023/06/02 04:53:04;;;;;;;1.92;1.55;;;;;;;;;;5053299;28;20032;-82
2023/06/02 04:55:30;;;;;;;3.65;1.80;;;;;;;;;;5050440;28;20025;-85
2023/06/02 04:57:56;;;;;;;1.33;1.20;;;;;;;;;;5054361;28;20091;-86
2023/06/02 05:00:22;;;;;;;2.47;1.83;;;;;;;;;;5051990;28;20181;-83
2023/06/02 05:02:47;;;;;;;1.73;1.23;;;;;;;;;;5049903;28;20362;-84
2023/06/02 05:05:13;;;;;;;1.70;1.60;;;;;;;;;;5057744;28;20537;-83
2023/06/02 05:07:38;;;;;;;1.73;1.30;;;;;;;;;;5054642;28;20029;-82
2023/06/02 05:10:05;;;;;;;2.80;1.75;;;;;;;;;;5055335;28;20078;-84
2023/06/02 05:12:31;;;;;;;3.45;2.38;;;;;;;;;;5057767;28;20145;-83
2023/06/02 05:14:56;;;;;;;5.47;2.50;;;;;;;;;;5053833;28;20449;-84
2023/06/02 05:17:24;;;;;;;2.33;1.60;;;;;;;;;;5059345;28;20056;-83
2023/06/02 05:19:50;;;;;;;1.83;1.67;;;;;;;;;;5062113;28;20419;-83
2023/06/02 05:22:16;;;;;;;2.80;2.05;;;;;;;;;;5054380;28;20033;-83
2023/06/02 05:24:41;;;;;;;3.88;2.65;;;;;;;;;;5050942;28;20675;-82
2023/06/02 05:27:07;;;;;;;2.65;2.03;;;;;;;;;;5062161;28;20633;-82
2023/06/02 05:29:32;;;;;;;3.20;2.35;;;;;;;;;;5063269;28;20453;-84
2023/06/02 05:31:58;;;;;;;2.83;2.13;;;;;;;;;;5055232;28;20032;-83
2023/06/02 05:34:23;;;;;;;3.20;1.83;;;;;;;;;;5058264;28;20020;-85
2023/06/02 05:36:49;;;;;;;4.40;2.28;;;;;;;;;;5057788;28;20017;-84
2023/06/02 05:39:15;;;;;;;5.07;2.05;;;;;;;;;;5054488;28;20408;-84
2023/06/02 05:41:42;;;;;;;2.28;1.95;;;;;;;;;;5046683;28;20040;-83
2023/06/02 05:44:07;;;;;;;4.70;2.58;;;;;;;;;;5055202;28;20056;-83
2023/06/02 05:46:33;;;;;;;3.08;2.30;;;;;;;;;;5050144;28;20374;-81
2023/06/02 05:48:58;;;;;;;3.40;2.53;;;;;;;;;;5049050;28;20036;-84
2023/06/02 05:51:23;;;;;;;1.83;1.30;;;;;;;;;;5051374;28;20028;-82
2023/06/02 05:53:50;;;;;;;2.10;1.70;;;;;;;;;;5050091;28;20116;-84
2023/06/02 05:56:16;;;;;;;2.33;2.00;;;;;;;;;;5048206;28;20028;-84
2023/06/02 05:58:41;;;;;;;2.70;2.00;;;;;;;;;;5049848;28;20095;-83
2023/06/02 06:01:08;;;;;;;3.63;2.30;;;;;;;;;;5054694;28;20072;-80
2023/06/02 06:03:35;;;;;;;4.68;2.83;;;;;;;;;;5050079;28;20044;-81
2023/06/02 06:06:01;;;;;;;2.92;1.83;;;;;;;;;;5042208;28;20044;-80
2023/06/02 06:08:26;;;;;;;3.33;2.13;;;;;;;;;;5053945;28;20060;-84
2023/06/02 06:10:52;;;;;;;5.32;2.30;;;;;;;;;;5053333;28;20404;-81
2023/06/02 06:13:17;;;;;;;2.75;2.03;;;;;;;;;;5054390;28;20035;-83
2023/06/02 06:15:43;;;;;;;2.47;1.98;;;;;;;;;;5053858;28;20021;-83
2023/06/02 06:18:08;;;;;;;3.05;2.20;;;;;;;;;;5046798;28;20447;-80
2023/06/02 06:20:34;;;;;;;1.95;1.52;;;;;;;;;;5061390;28;20024;-81
2023/06/02 06:22:59;;;;;;;3.75;2.60;;;;;;;;;;5053907;28;20021;-82
2023/06/02 06:25:25;;;;;;;3.80;2.05;;;;;;;;;;5058923;28;20029;-81
2023/06/02 06:27:50;;;;;;;3.33;2.10;;;;;;;;;;5063127;28;20048;-82
2023/06/02 06:30:16;;;;;;;2.08;1.55;;;;;;;;;;5053299;28;20028;-83
2023/06/02 06:32:41;;;;;;;4.18;2.78;;;;;;;;;;5052220;28;20492;-82
2023/06/02 06:35:07;;;;;;;3.58;2.15;;;;;;;;;;5049919;28;20433;-84
2023/06/02 06:37:33;;;;;;;2.10;1.90;;;;;;;;;;5054161;28;20029;-81
2023/06/02 06:39:58;;;;;;;3.13;2.72;;;;;;;;;;5051859;28;20029;-83
2023/06/02 06:42:23;;;;;;;2.13;1.85;;;;;;;;;;5053104;28;20032;-81
2023/06/02 06:44:50;;;;;;;4.30;1.75;;;;;;;;;;5053020;28;21519;-82
2023/06/02 06:47:16;;;;;;;3.65;2.63;;;;;;;;;;5064578;28;20029;-80
2023/06/02 06:49:41;;;;;;;2.92;2.15;;;;;;;;;;5053230;28;20078;-83
2023/06/02 06:52:07;;;;;;;13.88;2.25;;;;;;;;;;5051908;28;20026;-81
2023/06/02 06:54:32;;;;;;;2.53;1.67;;;;;;;;;;5051525;28;20025;-80
2023/06/02 06:56:58;;;;;;;3.70;2.83;;;;;;;;;;5051071;28;20028;-81
2023/06/02 06:59:23;;;;;;;6.30;2.47;;;;;;;;;;5052339;28;20468;-82
2023/06/02 07:01:48;;;;;;;2.17;1.83;;;;;;;;;;5052007;28;20051;-80
2023/06/02 07:04:14;;;;;;;2.45;1.90;;;;;;;;;;5056587;28;20032;-82
2023/06/02 07:06:39;;;;;;;3.20;2.20;;;;;;;;;;5060739;28;20025;-82
2023/06/02 07:09:05;;;;;;;2.47;1.90;;;;;;;;;;5052252;28;20035;-80
2023/06/02 07:11:30;;;;;;;2.92;2.13;;;;;;;;;;5050197;28;20078;-80
2023/06/02 07:13:56;;;;;;;3.17;2.75;;;;;;;;;;5053356;28;20032;-82
2023/06/02 07:16:21;;;;;;;2.28;1.83;;;;;;;;;;5057903;28;20111;-81
2023/06/02 07:18:48;;;;;;;2.60;1.67;;;;;;;;;;5070111;28;20044;-81
2023/06/02 07:21:13;;;;;;;3.92;2.35;;;;;;;;;;5065618;28;20064;-83
2023/06/02 07:23:39;;;;;;;4.38;2.35;;;;;;;;;;5053243;28;20024;-83
2023/06/02 07:26:04;;;;;;;2.05;1.55;;;;;;;;;;5056532;28;20033;-80
2023/06/02 07:28:30;;;;;;;1.48;1.23;;;;;;;;;;5051060;28;20065;-82
2023/06/02 07:30:55;;;;;;;7.47;2.33;;;;;;;;;;5051092;28;20036;-85
2023/06/02 07:33:21;;;;;;;2.75;1.90;;;;;;;;;;5052517;28;20037;-80
2023/06/02 07:35:46;;;;;;;3.60;2.17;;;;;;;;;;5052108;28;20032;-80
2023/06/02 07:38:12;;;;;;;3.03;2.00;;;;;;;;;;5060558;28;20477;-80
2023/06/02 07:40:37;;;;;;;3.88;2.67;;;;;;;;;;5054309;28;20029;-83
2023/06/02 07:43:03;;;;;;;3.17;1.88;;;;;;;;;;5046051;28;20029;-83
2023/06/02 07:45:29;;;;;;;3.47;2.53;;;;;;;;;;5043575;28;20107;-80
2023/06/02 07:47:55;;;;;;;2.63;1.77;;;;;;;;;;5060135;28;20021;-82
2023/06/02 07:50:20;;;;;;;3.13;1.90;;;;;;;;;;5051532;28;20028;-83
2023/06/02 07:52:46;;;;;;;2.40;1.70;;;;;;;;;;5056111;28;20119;-80
2023/06/02 07:55:12;;;;;;;2.65;1.90;;;;;;;;;;5054497;28;20063;-82
2023/06/02 07:57:37;;;;;;;2.45;1.85;;;;;;;;;;5050342;28;20017;-81
2023/06/02 08:00:11;;;;;;;2.92;1.90;;;;;;;;;;5053806;28;20029;-82
2023/06/02 08:02:37;;;;;;;4.60;2.38;;;;;;;;;;5048585;28;20500;-82
2023/06/02 08:05:02;;;;;;;3.10;2.13;;;;;;;;;;5064140;28;20165;-84
2023/06/02 08:07:27;;;;;;;2.80;2.00;;;;;;;;;;5059256;28;20028;-83
2023/06/02 08:09:53;;;;;;;2.55;1.90;;;;;;;;;;5048946;28;20047;-82
2023/06/02 08:12:20;;;;;;;2.65;1.90;;;;;;;;;;5054621;28;20116;-84
2023/06/02 08:14:45;;;;;;;1.80;1.45;;;;;;;;;;5051550;28;20020;-84
2023/06/02 08:17:11;;;;;;;3.90;2.15;;;;;;;;;;5051343;28;20037;-83
2023/06/02 08:19:36;;;;;;;2.13;1.70;;;;;;;;;;5051443;28;20025;-82
2023/06/02 08:22:02;;;;;;;2.50;1.70;;;;;;;;;;5064606;28;20103;-83
2023/06/02 08:24:28;;;;;;;3.30;1.80;;;;;;;;;;5055592;28;20025;-84
2023/06/02 08:26:54;;;;;;;2.35;1.77;;;;;;;;;;5062158;28;20358;-84
2023/06/02 08:29:20;;;;;;;3.55;1.75;;;;;;;;;;5051215;28;20020;-82
2023/06/02 08:31:47;;;;;;;3.20;2.47;;;;;;;;;;5050790;28;20029;-80
2023/06/02 08:34:12;;;;;;;3.63;2.45;;;;;;;;;;5049425;28;20061;-83
2023/06/02 08:36:38;;;;;;;3.30;2.28;;;;;;;;;;5048388;28;20125;-82
2023/06/02 08:39:12;;;;;;;2.45;1.83;;;;;;;;;;5056480;28;20030;-83
2023/06/02 08:41:39;;;;;;;2.55;1.70;;;;;;;;;;5060394;28;20024;-84
2023/06/02 08:44:05;;;;;;;4.28;2.03;;;;;;;;;;5054092;28;20029;-82
2023/06/02 08:46:34;;;;;;;2.55;1.80;;;;;;;;;;5056613;28;20036;-85
2023/06/02 08:49:03;;;;;;;2.97;2.03;;;;;;;;;;5050660;28;20025;-80
2023/06/02 08:51:36;;;;;;;2.97;1.80;;;;;;;;;;5058692;28;20029;-80
2023/06/02 08:54:06;;;;;;;2.50;1.33;;;;;;;;;;5054688;28;20120;-83
2023/06/02 08:56:31;;;;;;;2.75;1.38;;;;;;;;;;5058930;28;20123;-83
2023/06/02 08:58:57;;;;;;;2.15;1.20;;;;;;;;;;5051675;28;20185;-86
2023/06/02 09:01:23;;;;;;;1.38;0.95;;;;;;;;;;5054881;28;20037;-83
2023/06/02 09:03:51;;;;;;;1.35;1.25;;;;;;;;;;5058120;28;20116;-82
2023/06/02 09:06:26;;;;;;;1.25;1.02;;;;;;;;;;5053501;28;20025;-83
2023/06/02 09:08:57;;;;;;;1.60;1.27;;;;;;;;;;5052933;28;20135;-82
2023/06/02 09:11:23;;;;;;;2.72;1.60;;;;;;;;;;5056544;28;20032;-82
2023/06/02 09:13:52;;;;;;;2.17;1.63;;;;;;;;;;5059117;28;20552;-83
2023/06/02 09:16:20;;;;;;;1.50;1.30;;;;;;;;;;5058418;28;20066;-82
2023/06/02 09:19:06;;;;;;;3.83;1.98;;;;;;;;;;5059003;28;20043;-82
2023/06/02 09:21:36;;;;;;;1.77;1.42;;;;;;;;;;5053626;28;20045;-86
2023/06/02 09:24:03;;;;;;;4.75;2.28;;;;;;;;;;5056192;28;21228;-81
2023/06/02 09:26:36;;;;;;;2.63;1.83;;;;;;;;;;5051641;28;20039;-81
2023/06/02 09:29:09;;;;;;;3.33;1.90;;;;;;;;;;5084761;28;20036;-83
2023/06/02 09:31:48;;;;;;;2.63;1.63;;;;;;;;;;5052016;28;20056;-82
2023/06/02 09:34:15;;;;;;;5.05;2.90;;;;;;;;;;5054524;28;20047;-84
2023/06/02 09:36:47;;;;;;;3.38;1.98;;;;;;;;;;5058709;28;20408;-82
2023/06/02 09:39:14;;;;;;;3.13;2.00;;;;;;;;;;5052088;28;20032;-85
2023/06/02 09:41:40;;;;;;;6.30;3.13;;;;;;;;;;5062396;28;20042;-85
2023/06/02 09:44:13;;;;;;;2.33;1.55;;;;;;;;;;5050851;28;20029;-85
2023/06/02 09:46:47;;;;;;;1.92;1.55;;;;;;;;;;5057057;28;20381;-82
2023/06/02 09:49:13;;;;;;;1.95;1.30;;;;;;;;;;5057061;28;20036;-84
2023/06/02 09:51:39;;;;;;;2.80;1.52;;;;;;;;;;5057797;28;20477;-83
2023/06/02 09:54:06;;;;;;;3.20;2.10;;;;;;;;;;5056559;28;20080;-84
2023/06/02 09:56:36;;;;;;;2.42;1.65;;;;;;;;;;5065199;28;20475;-83
2023/06/02 09:59:05;;;;;;;1.65;1.50;;;;;;;;;;5057646;28;20027;-85
2023/06/02 10:01:34;;;;;;;1.73;1.27;;;;;;;;;;5052168;28;20055;-84
2023/06/02 10:04:01;;;;;;;1.92;1.25;;;;;;;;;;5057438;28;20416;-85
2023/06/02 10:06:44;;;;;;;2.42;1.67;;;;;;;;;;5067507;28;20025;-82
2023/06/02 10:09:25;;;;;;;2.05;1.30;;;;;;;;;;5052805;28;20037;-85
2023/06/02 10:12:05;;;;;;;1.40;1.00;;;;;;;;;;5052194;28;20033;-83
2023/06/02 10:14:43;;;;;;;3.38;1.77;;;;;;;;;;5058774;28;20112;-83
2023/06/02 10:17:30;;;;;;;1.30;1.02;;;;;;;;;;5060941;28;20029;-83
2023/06/02 10:20:23;;;;;;;3.20;1.75;;;;;;;;;;5064705;28;20031;-81
2023/06/02 10:23:03;;;;;;;2.85;1.55;;;;;;;;;;5065692;28;20493;-83
2023/06/02 10:25:50;;;;;;;1.73;1.42;;;;;;;;;;5066414;28;20048;-82
2023/06/02 10:28:16;;;;;;;1.58;1.30;;;;;;;;;;5056119;28;20055;-85
2023/06/02 10:30:46;;;;;;;1.30;1.10;;;;;;;;;;5063881;28;20449;-84
2023/06/02 10:33:12;;;;;;;2.90;1.35;;;;;;;;;;5069357;28;20037;-84
2023/06/02 10:35:58;;;;;;;2.13;1.60;;;;;;;;;;5056547;28;20043;-81
2023/06/02 10:38:31;;;;;;;2.40;1.30;;;;;;;;;;5061877;28;20108;-83
2023/06/02 10:40:59;;;;;;;1.83;1.42;;;;;;;;;;5071662;28;20388;-85
2023/06/02 10:43:25;;;;;;;2.42;1.58;;;;;;;;;;5052924;28;20058;-82
2023/06/02 10:45:51;;;;;;;1.85;1.40;;;;;;;;;;5065212;28;20166;-84
2023/06/02 10:48:38;;;;;;;1.65;1.30;;;;;;;;;;5064624;28;20028;-83
2023/06/02 10:51:05;;;;;;;1.92;1.30;;;;;;;;;;5052484;28;20104;-85
2023/06/02 10:53:31;;;;;;;2.00;1.15;;;;;;;;;;5050141;28;20057;-84
2023/06/02 10:55:56;;;;;;;2.28;1.70;;;;;;;;;;5062766;28;20420;-83
2023/06/02 10:58:48;;;;;;;2.15;1.55;;;;;;;;;;5061667;28;20024;-85
2023/06/02 11:01:59;;;;;;;3.78;1.92;;;;;;;;;;5056426;28;20036;-83
2023/06/02 11:04:28;;;;;;;2.70;1.67;;;;;;;;;;5061062;28;20074;-83
2023/06/02 11:07:32;;;;;;;1.83;1.35;;;;;;;;;;5051714;28;20064;-83
2023/06/02 11:10:04;;;;;;;3.13;1.52;;;;;;;;;;5008768;28;20034;-83
2023/06/02 11:12:51;;;;;;;2.60;1.48;;;;;;;;;;5010640;28;20116;-83
2023/06/02 11:15:20;;;;;;;1.92;1.27;;;;;;;;;;5061882;28;20037;-84
2023/06/02 11:17:47;;;;;;;2.33;1.67;;;;;;;;;;5059340;28;20464;-83
2023/06/02 11:20:15;;;;;;;1.88;1.50;;;;;;;;;;5066134;28;20037;-84
2023/06/02 11:22:42;;;;;;;2.53;1.77;;;;;;;;;;5064420;28;20063;-83
2023/06/02 11:25:08;;;;;;;2.10;1.55;;;;;;;;;;5064355;28;20029;-83
2023/06/02 11:27:45;;;;;;;2.17;1.35;;;;;;;;;;5055012;28;20385;-82
2023/06/02 11:30:15;;;;;;;2.47;1.60;;;;;;;;;;5045906;28;20029;-82
2023/06/02 11:32:43;;;;;;;1.70;1.30;;;;;;;;;;5054787;28;20054;-85
2023/06/02 11:35:10;;;;;;;2.08;1.60;;;;;;;;;;5068308;28;20028;-84
2023/06/02 11:37:40;;;;;;;3.50;1.67;;;;;;;;;;5048907;28;20029;-82
2023/06/02 11:40:07;;;;;;;2.15;1.42;;;;;;;;;;5056073;28;20025;-84
2023/06/02 11:42:43;;;;;;;1.45;1.10;;;;;;;;;;5056579;28;20032;-84
2023/06/02 11:45:20;;;;;;;2.50;1.65;;;;;;;;;;5064396;28;20387;-84
2023/06/02 11:47:49;;;;;;;2.35;1.70;;;;;;;;;;5058920;28;20032;-83
2023/06/02 11:50:16;;;;;;;2.03;1.48;;;;;;;;;;5063384;28;20033;-83
2023/06/02 11:52:42;;;;;;;2.70;1.88;;;;;;;;;;5059312;28;20037;-85
2023/06/02 11:55:08;;;;;;;2.08;1.45;;;;;;;;;;5054507;28;20368;-85
2023/06/02 11:57:33;;;;;;;1.80;1.42;;;;;;;;;;5063863;28;20082;-86
2023/06/02 12:00:06;;;;;;;2.95;1.60;;;;;;;;;;5049766;28;20024;-82
2023/06/02 12:02:32;;;;;;;3.08;1.85;;;;;;;;;;5058589;28;20089;-85
2023/06/02 12:04:57;;;;;;;2.17;1.48;;;;;;;;;;5053818;28;20029;-83
2023/06/02 12:07:29;;;;;;;3.78;1.70;;;;;;;;;;5060130;28;20025;-82
2023/06/02 12:09:55;;;;;;;1.60;1.35;;;;;;;;;;5060819;28;20025;-84
2023/06/02 12:12:20;;;;;;;2.45;1.67;;;;;;;;;;5053713;28;20124;-83
2023/06/02 12:14:47;;;;;;;4.32;2.03;;;;;;;;;;5056576;28;20425;-83
2023/06/02 12:17:12;;;;;;;3.03;1.55;;;;;;;;;;5059608;28;20108;-84
2023/06/02 12:19:38;;;;;;;2.00;1.63;;;;;;;;;;5048069;28;20104;-84
2023/06/02 12:22:11;;;;;;;2.30;1.73;;;;;;;;;;5051809;28;20055;-85
2023/06/02 12:24:39;;;;;;;3.20;1.70;;;;;;;;;;5055987;28;20048;-84
2023/06/02 12:27:06;;;;;;;2.35;1.60;;;;;;;;;;5065768;28;20040;-84
2023/06/02 12:29:32;;;;;;;2.20;1.50;;;;;;;;;;5055003;28;20024;-82
2023/06/02 12:32:02;;;;;;;2.00;1.42;;;;;;;;;;5058945;28;20401;-84
2023/06/02 12:34:29;;;;;;;3.05;2.00;;;;;;;;;;5053920;28;20036;-86
2023/06/02 12:36:55;;;;;;;2.47;1.73;;;;;;;;;;5056968;28;20042;-84
2023/06/02 12:39:21;;;;;;;2.22;1.30;;;;;;;;;;5062869;28;20029;-86
2023/06/02 12:41:47;;;;;;;5.47;2.47;;;;;;;;;;5057742;28;20483;-84
2023/06/02 12:44:12;;;;;;;1.70;1.40;;;;;;;;;;5052777;28;20101;-83
2023/06/02 12:46:38;;;;;;;2.20;1.50;;;;;;;;;;5059167;28;20026;-84
2023/06/02 12:49:05;;;;;;;2.53;1.73;;;;;;;;;;5052058;28;20090;-83
2023/06/02 12:51:32;;;;;;;3.25;1.30;;;;;;;;;;5050121;28;20053;-85
2023/06/02 12:53:57;;;;;;;2.92;1.85;;;;;;;;;;5052569;28;20025;-84
2023/06/02 12:56:23;;;;;;;2.67;1.70;;;;;;;;;;5052565;28;20037;-85
2023/06/02 12:58:48;;;;;;;3.13;1.70;;;;;;;;;;5053537;28;20028;-84
2023/06/02 13:01:15;;;;;;;1.55;1.23;;;;;;;;;;5053696;28;20495;-83
2023/06/02 13:03:42;;;;;;;2.10;1.42;;;;;;;;;;5061112;28;20024;-83
2023/06/02 13:06:09;;;;;;;2.97;2.08;;;;;;;;;;5055746;28;20025;-84
2023/06/02 13:08:38;;;;;;;1.98;1.42;;;;;;;;;;5053831;28;20044;-83
2023/06/02 13:11:03;;;;;;;2.88;1.77;;;;;;;;;;5058914;28;20028;-83
2023/06/02 13:13:29;;;;;;;3.70;2.45;;;;;;;;;;5061919;28;20107;-82
2023/06/02 13:15:55;;;;;;;2.05;1.67;;;;;;;;;;5059620;28;20042;-85
2023/06/02 13:18:21;;;;;;;2.92;1.83;;;;;;;;;;5053935;28;20448;-83
2023/06/02 13:20:46;;;;;;;3.08;2.00;;;;;;;;;;5059468;28;20044;-84
2023/06/02 13:23:12;;;;;;;3.17;1.80;;;;;;;;;;5051088;28;20497;-84
2023/06/02 13:25:39;;;;;;;3.80;1.88;;;;;;;;;;5048485;28;20032;-85
2023/06/02 13:28:05;;;;;;;4.38;2.22;;;;;;;;;;5043135;28;20038;-84
2023/06/02 13:30:32;;;;;;;4.28;2.38;;;;;;;;;;5053213;28;20055;-84
2023/06/02 13:32:57;;;;;;;3.00;2.30;;;;;;;;;;5055926;28;20020;-85
2023/06/02 13:35:23;;;;;;;2.88;1.77;;;;;;;;;;5047392;28;20752;-83
2023/06/02 13:37:48;;;;;;;2.17;1.45;;;;;;;;;;5057638;28;20056;-83
2023/06/02 13:40:14;;;;;;;2.28;1.60;;;;;;;;;;5054793;28;20056;-84
2023/06/02 13:42:42;;;;;;;1.98;1.50;;;;;;;;;;5048743;28;20504;-85
2023/06/02 13:45:08;;;;;;;3.20;1.83;;;;;;;;;;5055276;28;20056;-85
2023/06/02 13:47:34;;;;;;;3.90;1.77;;;;;;;;;;5060912;28;20029;-84
2023/06/02 13:49:59;;;;;;;2.97;2.00;;;;;;;;;;5057536;28;20025;-82
2023/06/02 13:52:25;;;;;;;2.38;1.70;;;;;;;;;;5052403;28;20052;-84
2023/06/02 13:54:50;;;;;;;2.28;1.33;;;;;;;;;;5052084;28;20427;-82
2023/06/02 13:57:16;;;;;;;1.63;1.30;;;;;;;;;;5054302;28;20067;-83
2023/06/02 13:59:41;;;;;;;2.33;1.17;;;;;;;;;;5054467;28;20020;-82
2023/06/02 14:02:07;;;;;;;2.13;1.52;;;;;;;;;;5056356;28;20020;-83
2023/06/02 14:04:32;;;;;;;1.45;1.35;;;;;;;;;;5055673;28;20021;-81
2023/06/02 14:06:58;;;;;;;1.92;1.40;;;;;;;;;;5057746;28;20055;-84
2023/06/02 14:09:23;;;;;;;6.43;1.27;;;;;;;;;;5048587;28;20491;-81
2023/06/02 14:11:50;;;;;;;2.75;1.95;;;;;;;;;;5056544;28;20032;-83
2023/06/02 14:14:15;;;;;;;1.83;1.30;;;;;;;;;;5046536;28;20551;-81
2023/06/02 14:16:41;;;;;;;2.53;1.60;;;;;;;;;;5051304;28;20103;-80
2023/06/02 14:19:07;;;;;;;2.08;1.65;;;;;;;;;;5050154;28;20060;-81
2023/06/02 14:21:32;;;;;;;1.75;1.17;;;;;;;;;;5044479;28;20106;-82
2023/06/02 14:23:58;;;;;;;1.67;1.52;;;;;;;;;;5080856;28;20032;-84
2023/06/02 14:26:23;;;;;;;1.67;1.42;;;;;;;;;;5055274;28;20152;-82
2023/06/02 14:28:49;;;;;;;1.85;1.42;;;;;;;;;;5055164;28;20543;-83
2023/06/02 14:31:14;;;;;;;1.52;1.30;;;;;;;;;;5053302;28;20036;-81
2023/06/02 14:33:40;;;;;;;2.72;1.48;;;;;;;;;;5050451;28;20461;-81
2023/06/02 14:36:07;;;;;;;2.05;1.48;;;;;;;;;;5059007;28;20469;-86
2023/06/02 14:38:33;;;;;;;1.95;1.50;;;;;;;;;;5051032;28;20025;-85
2023/06/02 14:40:58;;;;;;;1.77;1.27;;;;;;;;;;5047026;28;20025;-83
2023/06/02 14:43:24;;;;;;;2.28;1.40;;;;;;;;;;5052040;28;20481;-84
2023/06/02 14:45:49;;;;;;;2.80;1.83;;;;;;;;;;5055179;28;20421;-83
2023/06/02 14:48:15;;;;;;;1.88;1.48;;;;;;;;;;5059808;28;20037;-83